createdAt,value
2022-12-08T00:00:26.592Z,4.15
2022-12-08T00:02:56.029Z,3.80
2022-12-08T00:05:44.222Z,4.00
2022-12-08T00:08:30.802Z,3.60
2022-12-08T00:11:00.125Z,3.72
2022-12-08T00:13:29.326Z,3.50
2022-12-08T00:16:02.100Z,3.83
2022-12-08T00:18:31.329Z,3.90
2022-12-08T00:21:02.163Z,4.03
2022-12-08T00:23:31.456Z,3.85
2022-12-08T00:26:04.601Z,3.67
2022-12-08T00:28:34.644Z,4.10
2022-12-08T00:31:09.412Z,3.67
2022-12-08T00:33:39.131Z,3.47
2022-12-08T00:36:11.281Z,3.45
2022-12-08T00:38:41.691Z,3.83
2022-12-08T00:41:14.748Z,4.53
2022-12-08T00:43:44.321Z,4.07
2022-12-08T00:46:13.969Z,4.03
2022-12-08T00:48:43.225Z,4.50
2022-12-08T00:51:13.841Z,3.60
2022-12-08T00:53:43.179Z,4.53
2022-12-08T00:56:12.431Z,3.97
2022-12-08T00:58:41.559Z,3.90
2022-12-08T01:01:12.743Z,3.63
2022-12-08T01:03:42.412Z,4.13
2022-12-08T01:06:13.462Z,3.50
2022-12-08T01:08:43.198Z,4.13
2022-12-08T01:11:14.441Z,4.07
2022-12-08T01:13:44.206Z,3.13
2022-12-08T01:16:23.113Z,3.80
2022-12-08T01:18:52.743Z,3.40
2022-12-08T01:21:23.871Z,3.30
2022-12-08T01:23:53.219Z,3.60
2022-12-08T01:26:22.926Z,3.15
2022-12-08T01:28:52.185Z,3.50
2022-12-08T01:31:22.925Z,3.47
2022-12-08T01:33:52.380Z,3.70
2022-12-08T01:36:25.239Z,3.42
2022-12-08T01:38:55.609Z,3.13
2022-12-08T01:41:26.975Z,3.33
2022-12-08T01:44:01.418Z,3.63
2022-12-08T01:46:33.096Z,3.33
2022-12-08T01:49:06.701Z,3.33
2022-12-08T01:51:40.026Z,3.10
2022-12-08T01:54:10.128Z,3.33
2022-12-08T01:56:46.370Z,3.47
2022-12-08T01:59:16.186Z,3.58
2022-12-08T02:01:45.561Z,3.70
2022-12-08T02:04:14.891Z,3.40
2022-12-08T02:06:47.958Z,3.10
2022-12-08T02:09:17.373Z,3.08
2022-12-08T02:11:46.737Z,3.35
2022-12-08T02:14:16.736Z,3.38
2022-12-08T02:16:54.631Z,3.38
2022-12-08T02:19:48.340Z,2.80
2022-12-08T02:22:26.583Z,3.60
2022-12-08T02:25:04.881Z,3.08
2022-12-08T02:27:49.719Z,3.22
2022-12-08T02:30:25.539Z,3.60
2022-12-08T02:33:42.465Z,3.28
2022-12-08T02:36:19.063Z,3.00
2022-12-08T02:38:57.733Z,3.35
2022-12-08T02:41:38.799Z,3.35
2022-12-08T02:44:14.401Z,3.47
2022-12-08T02:46:48.577Z,2.88
2022-12-08T02:49:17.886Z,2.95
2022-12-08T02:51:48.586Z,2.92
2022-12-08T02:54:17.813Z,3.05
2022-12-08T02:57:01.746Z,3.03
2022-12-08T02:59:48.136Z,3.15
2022-12-08T03:02:35.590Z,3.38
2022-12-08T03:05:11.137Z,3.65
2022-12-08T03:07:48.892Z,3.08
2022-12-08T03:10:24.826Z,3.00
2022-12-08T03:12:57.984Z,3.13
2022-12-08T03:15:27.634Z,3.15
2022-12-08T03:18:01.091Z,3.08
2022-12-08T03:20:32.511Z,3.10
2022-12-08T03:23:06.890Z,2.97
2022-12-08T03:25:42.507Z,2.78
2022-12-08T03:28:12.940Z,3.13
2022-12-08T03:30:46.205Z,3.17
2022-12-08T03:33:20.139Z,3.03
2022-12-08T03:35:50.423Z,3.20
2022-12-08T03:38:21.269Z,3.90
2022-12-08T03:41:10.861Z,2.90
2022-12-08T03:43:40.127Z,3.03
2022-12-08T03:46:09.330Z,2.95
2022-12-08T03:48:38.624Z,3.03
2022-12-08T03:51:07.824Z,3.25
2022-12-08T03:53:38.465Z,2.92
2022-12-08T03:56:15.404Z,3.25
2022-12-08T03:58:45.316Z,3.40
2022-12-08T04:01:14.859Z,3.20
2022-12-08T04:03:44.077Z,2.83
2022-12-08T04:06:13.404Z,2.60
2022-12-08T04:08:44.223Z,2.67
2022-12-08T04:11:13.739Z,2.70
2022-12-08T04:13:43.823Z,3.22
2022-12-08T04:16:17.894Z,2.92
2022-12-08T04:18:47.827Z,3.17
2022-12-08T04:21:17.317Z,2.90
2022-12-08T04:23:48.444Z,3.20
2022-12-08T04:26:18.109Z,2.97
2022-12-08T04:28:47.490Z,3.20
2022-12-08T04:31:16.755Z,2.60
2022-12-08T04:33:46.971Z,2.90
2022-12-08T04:36:16.506Z,3.03
2022-12-08T04:38:45.712Z,2.72
2022-12-08T04:41:16.339Z,3.13
2022-12-08T04:43:45.831Z,2.90
2022-12-08T04:46:15.157Z,3.58
2022-12-08T04:48:44.406Z,2.72
2022-12-08T04:51:18.077Z,3.30
2022-12-08T04:53:48.140Z,2.88
2022-12-08T04:56:20.488Z,2.70
2022-12-08T04:58:49.760Z,3.25
2022-12-08T05:01:19.024Z,3.47
2022-12-08T05:03:48.341Z,2.97
2022-12-08T05:06:20.589Z,3.72
2022-12-08T05:08:50.013Z,7.15
2022-12-08T05:11:20.943Z,9.20
2022-12-08T05:13:50.217Z,3.83
2022-12-08T05:16:19.541Z,4.57
2022-12-08T05:18:48.741Z,5.18
2022-12-08T05:21:18.070Z,3.42
2022-12-08T05:23:48.987Z,2.63
2022-12-08T05:26:19.642Z,3.10
2022-12-08T05:28:48.863Z,3.35
2022-12-08T05:31:19.135Z,2.90
2022-12-08T05:33:49.809Z,3.75
2022-12-08T05:36:20.057Z,2.88
2022-12-08T05:38:49.794Z,3.10
2022-12-08T05:41:22.378Z,3.55
2022-12-08T05:43:51.601Z,3.70
2022-12-08T05:46:21.037Z,3.25
2022-12-08T05:48:50.544Z,4.45
2022-12-08T05:51:21.857Z,4.78
2022-12-08T05:53:52.821Z,4.35
2022-12-08T05:56:24.396Z,4.70
2022-12-08T05:58:53.958Z,3.08
2022-12-08T06:01:24.380Z,3.85
2022-12-08T06:03:54.135Z,2.97
2022-12-08T06:06:23.771Z,4.00
2022-12-08T06:08:53.250Z,3.78
2022-12-08T06:11:26.342Z,3.13
2022-12-08T06:13:56.902Z,3.63
2022-12-08T06:16:27.520Z,4.72
2022-12-08T06:18:57.320Z,2.80
2022-12-08T06:21:26.592Z,2.90
2022-12-08T06:23:56.462Z,5.03
2022-12-08T06:26:27.699Z,7.70
2022-12-08T06:29:01.006Z,8.18
2022-12-08T06:31:30.396Z,4.10
2022-12-08T06:33:59.769Z,6.32
2022-12-08T06:36:29.554Z,8.90
2022-12-08T06:38:59.162Z,5.85
2022-12-08T06:41:29.931Z,4.95
2022-12-08T06:43:59.285Z,3.20
2022-12-08T06:46:28.604Z,3.13
2022-12-08T06:48:57.916Z,3.83
2022-12-08T06:51:27.154Z,3.08
2022-12-08T06:53:56.467Z,4.05
2022-12-08T06:56:28.266Z,4.80
2022-12-08T06:58:58.875Z,3.97
2022-12-08T07:01:28.086Z,3.10
2022-12-08T07:03:57.261Z,3.10
2022-12-08T07:06:26.861Z,4.30
2022-12-08T07:08:56.251Z,3.00
2022-12-08T07:11:25.442Z,3.20
2022-12-08T07:13:56.681Z,2.90
2022-12-08T07:16:27.539Z,3.50
2022-12-08T07:18:56.934Z,2.83
2022-12-08T07:21:26.145Z,3.97
2022-12-08T07:23:57.920Z,3.00
2022-12-08T07:26:28.110Z,3.60
2022-12-08T07:28:57.415Z,2.90
2022-12-08T07:31:29.239Z,3.07
2022-12-08T07:33:59.394Z,3.05
2022-12-08T07:36:28.912Z,2.90
2022-12-08T07:38:58.124Z,3.20
2022-12-08T07:41:27.986Z,3.00
2022-12-08T07:43:58.142Z,3.47
2022-12-08T07:46:29.033Z,3.10
2022-12-08T07:48:59.031Z,3.22
2022-12-08T07:51:28.245Z,3.20
2022-12-08T07:53:57.518Z,3.00
2022-12-08T07:56:26.774Z,3.03
2022-12-08T07:58:56.201Z,3.35
2022-12-08T08:01:29.716Z,2.72
2022-12-08T08:04:02.116Z,2.80
2022-12-08T08:06:31.689Z,3.17
2022-12-08T08:09:00.951Z,2.78
2022-12-08T08:11:30.199Z,4.68
2022-12-08T08:13:59.409Z,3.67
2022-12-08T08:16:36.534Z,2.70
2022-12-08T08:19:09.864Z,3.38
2022-12-08T08:21:46.643Z,3.33
2022-12-08T08:24:15.933Z,2.78
2022-12-08T08:26:45.351Z,3.90
2022-12-08T08:29:14.573Z,3.05
2022-12-08T08:31:45.661Z,3.05
2022-12-08T08:34:15.337Z,2.80
2022-12-08T08:36:44.645Z,3.33
2022-12-08T08:39:14.784Z,3.13
2022-12-08T08:41:44.140Z,3.38
2022-12-08T08:44:14.984Z,3.17
2022-12-08T08:46:45.779Z,3.27
2022-12-08T08:49:15.062Z,3.00
2022-12-08T08:51:44.686Z,2.78
2022-12-08T08:54:16.085Z,3.00
2022-12-08T08:56:45.372Z,4.00
2022-12-08T08:59:14.728Z,3.45
2022-12-08T09:01:45.457Z,3.63
2022-12-08T09:04:20.116Z,3.35
2022-12-08T09:06:49.697Z,3.13
2022-12-08T09:09:19.046Z,3.13
2022-12-08T09:11:48.211Z,3.53
2022-12-08T09:14:17.446Z,4.25
2022-12-08T09:16:48.355Z,3.40
2022-12-08T09:19:20.014Z,4.35
2022-12-08T09:21:49.386Z,4.73
2022-12-08T09:24:18.683Z,3.40
2022-12-08T09:26:48.528Z,3.55
2022-12-08T09:29:17.896Z,3.30
2022-12-08T09:31:48.931Z,3.38
2022-12-08T09:34:18.424Z,3.43
2022-12-08T09:36:48.931Z,3.53
2022-12-08T09:39:18.125Z,3.67
2022-12-08T09:41:51.604Z,3.20
2022-12-08T09:44:57.487Z,3.50
2022-12-08T09:47:36.204Z,3.23
2022-12-08T09:50:15.585Z,3.80
2022-12-08T09:52:51.229Z,2.88
2022-12-08T09:55:26.496Z,3.35
2022-12-08T09:58:04.027Z,3.00
2022-12-08T10:00:36.672Z,3.57
2022-12-08T10:03:16.428Z,3.30
2022-12-08T10:05:53.465Z,3.00
2022-12-08T10:08:29.974Z,2.97
2022-12-08T10:11:01.050Z,3.50
2022-12-08T10:13:39.668Z,3.20
2022-12-08T10:16:23.214Z,3.40
2022-12-08T10:19:03.662Z,3.33
2022-12-08T10:21:34.175Z,3.33
2022-12-08T10:24:10.746Z,3.40
2022-12-08T10:26:40.599Z,3.37
2022-12-08T10:29:13.893Z,3.57
2022-12-08T10:31:43.640Z,3.60
2022-12-08T10:34:19.640Z,3.20
2022-12-08T10:36:54.465Z,2.95
2022-12-08T10:39:35.481Z,3.10
2022-12-08T10:42:17.090Z,3.22
2022-12-08T10:44:59.300Z,3.30
2022-12-08T10:47:30.743Z,3.33
2022-12-08T10:50:22.041Z,3.08
2022-12-08T10:52:57.681Z,3.58
2022-12-08T10:55:30.534Z,3.35
2022-12-08T10:58:00.042Z,3.10
2022-12-08T11:00:29.726Z,3.90
2022-12-08T11:03:00.972Z,3.45
2022-12-08T11:05:35.250Z,3.28
2022-12-08T11:08:05.992Z,3.20
2022-12-08T11:10:37.453Z,3.35
2022-12-08T11:13:14.006Z,3.08
2022-12-08T11:15:45.862Z,3.20
2022-12-08T11:18:24.941Z,3.03
2022-12-08T11:21:11.235Z,2.93
2022-12-08T11:23:44.179Z,3.30
2022-12-08T11:26:22.067Z,3.30
2022-12-08T11:28:51.504Z,3.13
2022-12-08T11:31:30.448Z,3.30
2022-12-08T11:33:59.917Z,3.20
2022-12-08T11:36:33.882Z,2.73
2022-12-08T11:39:05.712Z,3.40
2022-12-08T11:41:38.794Z,3.15
2022-12-08T11:44:29.715Z,3.10
2022-12-08T11:47:03.923Z,3.00
2022-12-08T11:49:37.906Z,3.43
2022-12-08T11:52:18.841Z,3.37
2022-12-08T11:54:52.103Z,2.93
2022-12-08T11:57:24.668Z,3.45
2022-12-08T11:59:57.670Z,3.10
2022-12-08T12:02:29.969Z,3.00
2022-12-08T12:05:06.317Z,3.05
2022-12-08T12:07:49.680Z,3.33
2022-12-08T12:10:43.058Z,3.10
2022-12-08T12:13:33.131Z,3.20
2022-12-08T12:16:36.930Z,2.87
2022-12-08T12:19:11.466Z,3.20
2022-12-08T12:21:44.174Z,3.10
2022-12-08T12:24:25.315Z,3.00
2022-12-08T12:26:59.994Z,3.27
2022-12-08T12:29:32.079Z,3.40
2022-12-08T12:32:05.242Z,2.80
2022-12-08T12:34:37.309Z,3.13
2022-12-08T12:37:12.352Z,3.22
2022-12-08T12:39:55.964Z,3.15
2022-12-08T12:42:41.868Z,2.97
2022-12-08T12:45:27.439Z,2.90
2022-12-08T12:48:15.770Z,3.17
2022-12-08T12:50:48.161Z,3.03
2022-12-08T12:53:49.830Z,3.30
2022-12-08T12:56:49.575Z,2.83
2022-12-08T12:59:44.013Z,3.17
2022-12-08T13:02:26.136Z,3.05
2022-12-08T13:05:02.126Z,2.95
2022-12-08T13:07:34.591Z,3.20
2022-12-08T13:10:17.836Z,3.23
2022-12-08T13:13:04.607Z,2.90
2022-12-08T13:15:40.607Z,3.50
2022-12-08T13:18:20.613Z,3.47
2022-12-08T13:20:53.590Z,3.95
2022-12-08T13:23:46.355Z,2.93
2022-12-08T13:26:22.831Z,2.93
2022-12-08T13:29:19.051Z,2.92
2022-12-08T13:31:52.150Z,2.70
2022-12-08T13:34:31.695Z,3.15
2022-12-08T13:37:10.206Z,3.05
2022-12-08T13:39:46.165Z,3.53
2022-12-08T13:42:23.314Z,3.30
2022-12-08T13:54:48.525Z,3.20
2022-12-08T13:57:02.412Z,3.00
2022-12-08T13:59:30.496Z,2.93
2022-12-08T14:02:05.299Z,3.17
2022-12-08T14:04:54.556Z,2.70
2022-12-08T14:07:24.775Z,2.77
2022-12-08T14:09:54.538Z,2.83
2022-12-08T14:12:26.450Z,2.90
2022-12-08T14:15:03.815Z,2.88
2022-12-08T14:17:35.700Z,3.50
2022-12-08T14:20:24.902Z,3.50
2022-12-08T14:22:54.950Z,3.30
2022-12-08T14:25:25.779Z,2.90
2022-12-08T14:28:01.778Z,3.28
2022-12-08T14:30:34.283Z,3.33
2022-12-08T14:33:06.480Z,3.17
2022-12-08T14:35:37.066Z,3.57
2022-12-08T14:38:11.250Z,3.22
2022-12-08T14:40:41.854Z,3.03
2022-12-08T14:43:17.778Z,3.70
2022-12-08T14:45:53.556Z,3.45
2022-12-08T14:48:27.241Z,3.30
2022-12-08T14:51:01.913Z,3.25
2022-12-08T14:53:39.758Z,3.33
2022-12-08T14:56:12.575Z,3.35
2022-12-08T14:58:41.883Z,2.60
2022-12-08T15:01:17.121Z,3.40
2022-12-08T15:03:51.512Z,3.00
2022-12-08T15:06:23.480Z,3.10
2022-12-08T15:08:56.387Z,3.90
2022-12-08T15:11:35.276Z,3.17
2022-12-08T15:14:05.062Z,3.20
2022-12-08T15:16:45.198Z,3.30
2022-12-08T15:19:23.393Z,3.37
2022-12-08T15:21:53.033Z,3.43
2022-12-08T15:24:25.545Z,3.13
2022-12-08T15:26:55.430Z,3.20
2022-12-08T15:29:26.695Z,3.43
2022-12-08T15:31:58.643Z,3.30
2022-12-08T15:34:29.473Z,3.20
2022-12-08T15:36:58.826Z,3.33
2022-12-08T15:39:34.248Z,3.15
2022-12-08T15:42:04.468Z,3.10
2022-12-08T15:44:33.880Z,3.53
2022-12-08T15:47:03.367Z,2.95
2022-12-08T15:49:34.027Z,3.07
2022-12-08T15:52:11.163Z,3.20
2022-12-08T15:54:41.424Z,3.23
2022-12-08T15:57:35.925Z,3.33
2022-12-08T16:07:12.444Z,3.23
2022-12-08T16:09:13.471Z,3.50
2022-12-08T16:12:09.933Z,2.93
2022-12-08T16:17:31.120Z,3.53
2022-12-08T16:20:01.139Z,3.35
2022-12-08T16:25:24.406Z,4.30
2022-12-08T16:28:02.851Z,4.53
2022-12-08T16:30:32.706Z,4.10
2022-12-08T16:33:02.011Z,7.97
2022-12-08T16:35:31.479Z,3.80
2022-12-08T16:38:02.179Z,7.33
2022-12-08T16:40:32.047Z,58.58
2022-12-08T16:43:00.234Z,23.47
2022-12-08T16:45:31.203Z,23.67
2022-12-08T16:48:01.769Z,16.40
2022-12-08T16:50:32.625Z,24.97
2022-12-08T16:53:06.033Z,14.20
2022-12-08T16:55:35.951Z,20.93
2022-12-08T16:58:05.252Z,22.97
2022-12-08T17:00:37.187Z,17.45
2022-12-08T17:03:08.463Z,15.73
2022-12-08T17:05:41.398Z,18.67
2022-12-08T17:08:13.413Z,9.75
2022-12-08T17:10:43.080Z,13.00
2022-12-08T17:13:13.232Z,12.67
2022-12-08T17:15:42.557Z,11.82
2022-12-08T17:18:12.290Z,12.02
2022-12-08T17:20:41.546Z,13.23
2022-12-08T17:23:12.236Z,12.50
2022-12-08T17:25:41.574Z,15.68
2022-12-08T17:28:10.766Z,11.75
2022-12-08T17:30:40.551Z,15.60
2022-12-08T17:33:09.900Z,16.77
2022-12-08T17:35:39.154Z,9.65
2022-12-08T17:38:08.482Z,10.48
2022-12-08T17:40:39.115Z,16.08
2022-12-08T17:43:08.434Z,11.35
2022-12-08T17:45:42.664Z,10.27
2022-12-08T17:48:12.130Z,10.98
2022-12-08T17:50:42.202Z,3.75
2022-12-08T17:53:13.018Z,7.70
2022-12-08T17:55:43.615Z,7.65
2022-12-08T17:58:12.868Z,8.82
2022-12-08T18:00:42.035Z,9.77
2022-12-08T18:03:11.365Z,11.38
2022-12-08T18:05:40.744Z,9.38
2022-12-08T18:08:10.340Z,9.25
2022-12-08T18:10:39.678Z,6.45
2022-12-08T18:13:10.687Z,8.52
2022-12-08T18:15:39.964Z,11.68
2022-12-08T18:18:09.263Z,10.10
2022-12-08T18:20:39.552Z,11.20
2022-12-08T18:23:09.151Z,9.85
2022-12-08T18:25:38.368Z,8.73
2022-12-08T18:28:07.717Z,6.68
2022-12-08T18:30:38.843Z,8.50
2022-12-08T18:33:09.047Z,8.90
2022-12-08T18:35:40.708Z,7.35
2022-12-08T18:38:09.977Z,6.10
2022-12-08T18:40:39.249Z,6.10
2022-12-08T18:43:08.519Z,5.88
2022-12-08T18:45:39.937Z,7.97
2022-12-08T18:48:10.412Z,5.35
2022-12-08T18:50:44.889Z,6.68
2022-12-08T18:53:14.434Z,5.63
2022-12-08T18:55:43.679Z,5.10
2022-12-08T18:58:14.591Z,6.40
2022-12-08T19:00:45.280Z,15.57
2022-12-08T19:03:14.642Z,5.22
2022-12-08T19:05:44.021Z,5.57
2022-12-08T19:08:13.321Z,5.80
2022-12-08T19:10:42.647Z,7.10
2022-12-08T19:13:13.209Z,8.30
2022-12-08T19:15:42.635Z,7.10
2022-12-08T19:18:13.382Z,6.80
2022-12-08T19:20:42.627Z,5.20
2022-12-08T19:23:13.672Z,5.97
2022-12-08T19:25:43.203Z,6.60
2022-12-08T19:28:12.523Z,4.57
2022-12-08T19:30:42.482Z,5.95
2022-12-08T19:33:14.020Z,5.18
2022-12-08T19:35:48.998Z,8.77
2022-12-08T19:38:21.760Z,4.35
2022-12-08T19:41:08.668Z,5.10
2022-12-08T19:43:55.354Z,8.38
2022-12-08T19:46:26.337Z,4.63
2022-12-08T19:48:57.483Z,8.20
2022-12-08T19:51:27.174Z,4.07
2022-12-08T19:53:56.372Z,6.57
2022-12-08T19:56:25.864Z,4.70
2022-12-08T19:58:55.173Z,4.00
2022-12-08T20:01:24.570Z,5.80
2022-12-08T20:03:53.980Z,3.90
2022-12-08T20:06:26.057Z,4.10
2022-12-08T20:08:55.288Z,7.90
2022-12-08T20:11:24.562Z,4.72
2022-12-08T20:13:53.841Z,6.78
2022-12-08T20:16:24.254Z,6.00
2022-12-08T20:18:53.537Z,5.38
2022-12-08T20:21:24.203Z,4.63
2022-12-08T20:23:53.510Z,7.15
2022-12-08T20:26:24.791Z,4.65
2022-12-08T20:28:54.252Z,6.32
2022-12-08T20:31:25.839Z,4.30
2022-12-08T20:33:55.687Z,4.75
2022-12-08T20:36:26.691Z,6.57
2022-12-08T20:38:56.368Z,5.47
2022-12-08T20:41:25.549Z,5.65
2022-12-08T20:43:55.315Z,4.22
2022-12-08T20:46:24.596Z,4.05
2022-12-08T20:48:53.942Z,4.55
2022-12-08T20:51:28.415Z,4.93
2022-12-08T20:54:02.549Z,3.83
2022-12-08T20:56:33.153Z,4.22
2022-12-08T20:59:02.671Z,6.45
2022-12-08T21:01:32.124Z,4.60
2022-12-08T21:04:01.707Z,6.10
2022-12-08T21:06:31.044Z,5.40
2022-12-08T21:09:01.856Z,4.82
2022-12-08T21:11:31.190Z,4.40
2022-12-08T21:14:00.668Z,5.00
2022-12-08T21:16:30.269Z,5.63
2022-12-08T21:18:59.554Z,4.80
2022-12-08T21:21:28.871Z,4.30
2022-12-08T21:23:58.239Z,5.00
2022-12-08T21:26:29.110Z,6.82
2022-12-08T21:28:59.363Z,4.78
2022-12-08T21:31:31.907Z,4.22
2022-12-08T21:34:02.511Z,4.65
2022-12-08T21:36:32.438Z,4.90
2022-12-08T21:39:02.840Z,5.55
2022-12-08T21:41:51.309Z,5.32
2022-12-08T21:44:20.941Z,5.07
2022-12-08T21:46:50.345Z,5.40
2022-12-08T21:49:19.848Z,5.68
2022-12-08T21:51:49.103Z,5.65
2022-12-08T21:54:19.395Z,4.93
2022-12-08T21:56:51.438Z,5.35
2022-12-08T21:59:21.268Z,6.00
2022-12-08T22:01:50.813Z,5.40
2022-12-08T22:04:21.868Z,5.43
2022-12-08T22:06:51.384Z,5.43
2022-12-08T22:09:20.746Z,5.20
2022-12-08T22:11:51.751Z,5.18
2022-12-08T22:14:21.139Z,4.72
2022-12-08T22:16:50.655Z,5.10
2022-12-08T22:19:20.259Z,5.28
2022-12-08T22:21:49.576Z,5.15
2022-12-08T22:24:19.100Z,5.55
2022-12-08T22:26:48.380Z,8.23
2022-12-08T22:29:19.122Z,5.00
2022-12-08T22:31:48.526Z,6.13
2022-12-08T22:34:17.858Z,5.55
2022-12-08T22:36:49.122Z,5.25
2022-12-08T22:39:18.523Z,5.80
2022-12-08T22:41:47.960Z,5.32
2022-12-08T22:44:18.700Z,6.35
2022-12-08T22:46:48.088Z,6.22
2022-12-08T22:49:17.278Z,5.55
2022-12-08T22:51:46.559Z,5.40
2022-12-08T22:54:15.767Z,6.03
2022-12-08T22:56:45.025Z,5.30
2022-12-08T22:59:14.271Z,5.28
2022-12-08T23:01:44.957Z,5.10
2022-12-08T23:04:17.669Z,5.65
2022-12-08T23:06:47.789Z,5.65
2022-12-08T23:09:17.200Z,5.60
2022-12-08T23:11:46.506Z,5.30
2022-12-08T23:14:16.670Z,5.63
2022-12-08T23:16:47.783Z,6.90
2022-12-08T23:19:17.079Z,5.82
2022-12-08T23:21:46.588Z,6.10
2022-12-08T23:24:15.906Z,5.93
2022-12-08T23:26:45.234Z,5.50
2022-12-08T23:29:14.486Z,6.45
2022-12-08T23:31:43.694Z,5.15
2022-12-08T23:34:14.810Z,5.50
2022-12-08T23:36:44.338Z,6.00
2022-12-08T23:39:13.651Z,5.55
2022-12-08T23:41:43.203Z,5.90
2022-12-08T23:44:12.565Z,5.38
2022-12-08T23:46:42.190Z,6.25
2022-12-08T23:49:12.678Z,5.78
2022-12-08T23:51:43.310Z,5.85
2022-12-08T23:54:12.593Z,6.13
2022-12-08T23:56:43.278Z,6.03
2022-12-08T23:59:12.578Z,6.38
